Arild, Sweden

9:42 PM CEST on April 30, 2017 (GMT +0200)
Arild | | Change Station

Elev 151 ft 56.26 °N, 12.58 °E | Updated 12 minutes ago

Clear
Clear
42.3 °F
Feels Like 42 °F
N
1.0
Wind Variable Wind from SE
Gusts 5.0 mph

Today
High -- | Low -- °F
--% Chance of Precip.
Yesterday
High -- | Low -- °F
Precip. -- in
Pressure 30.18 in
Visibility 6.2 miles
Clouds
Windchill 42 °F
Dew Point -5 °F
Humidity 13%
Rainfall 0.00 in
Snow Depth Not available.
5:26 AM 8:48 PM
Waxing Crescent, 25% visible
METAR ESTA 301920Z AUTO 12007KT 9999 NCD 05/M01 Q1022
Pressure 30.18 in
Visibility 6.2 miles
Clouds
Windchill 42 °F
Dew Point -5 °F
Humidity 13%
Rainfall 0.00 in
Snow Depth Not available.
5:26 AM 8:48 PM
Waxing Crescent, 25% visible
METAR ESTA 301920Z AUTO 12007KT 9999 NCD 05/M01 Q1022

Get Severe Weather Alerts

Thanks for signing up!

Be on the lookout for a verification email in your inbox.

You'll start receiving the daily forecast at 8 AM.

×

10-Day Weather Forecast

×

Almanac

Astronomy

Apr. 30, 2017 Rise Set
Actual Time
Civil Twilight
Nautical Twilight
Astronomical Twilight
Moon
Length of Visible Light
Length of Day
Tomorrow will be .
, % of the Moon is Illuminated

Today's Extremes

Country Highs Country Lows

Community

WunderPhotos

WunderBlog® & News

Nearby

Air Quality

  Air Quality AQ Index Pollutant
Not available.

Snow Depth

Station Depth Elevation

Earthquake Activity

City Distance Mag. Time & Date
Minimum magnitude displayed is 2.5.

Coastal Water Temperatures

Place Temperature

Stations

Nearby Weather Stations

Station Location Temp. Windchill Dew Point Humidity Wind Precip. Elev Updated Type